Time;durP1;ratioP1;P1;durP2;ratioP2;P2;SDS_P1;SDS_P2;PMS_P1;PMS_P2;Temp;Humidity;BMP_temperature;BMP_pressure;BME280_temperature;BME280_humidity;BME280_pressure;Samples;Min_cycle;Max_cycle;Signal;HPM_P1;HPM_P2
2023/03/29 00:01:02;;;;;;;;;;;;;;;0.56;59.12;101186.34;5608786;31;34857;-66
2023/03/29 00:04:12;;;;;;;;;;;;;;;0.72;59.32;101188.97;5608721;31;34381;-66
2023/03/29 00:07:22;;;;;;;;;;;;;;;0.57;59.50;101189.81;5608723;31;33175;-65
2023/03/29 00:10:31;;;;;;;;;;;;;;;0.56;59.61;101194.19;5609039;31;34396;-65
2023/03/29 00:13:39;;;;;;;;;;;;;;;0.44;59.44;101194.81;5609256;31;34882;-66
2023/03/29 00:16:47;;;;;;;;;;;;;;;0.33;60.58;101189.37;5595980;31;33670;-65
2023/03/29 00:19:53;;;;;;;;;;;;;;;0.21;62.09;101193.47;5608640;31;34873;-66
2023/03/29 00:23:03;;;;;;;;;;;;;;;0.14;62.96;101188.69;5608665;31;34795;-66
2023/03/29 00:26:10;;;;;;;;;;;;;;;0.05;64.67;101195.19;5609249;31;34390;-66
2023/03/29 00:29:21;;;;;;;;;;;;;;;-0.06;65.69;101182.75;5608734;31;33843;-66
2023/03/29 00:32:35;;;;;;;;;;;;;;;-0.06;66.25;101189.72;5584019;31;33067;-66
2023/03/29 00:35:46;;;;;;;;;;;;;;;-0.12;67.40;101205.69;5608783;31;34288;-66
2023/03/29 00:38:57;;;;;;;;;;;;;;;-0.25;68.95;101202.03;5595517;31;33149;-66
2023/03/29 00:42:05;;;;;;;;;;;;;;;-0.23;69.83;101201.03;5595968;31;34641;-66
2023/03/29 00:45:20;;;;;;;;;;;;;;;-0.19;71.15;101205.16;5608303;31;34278;-66
2023/03/29 00:48:28;;;;;;;;;;;;;;;-0.19;71.06;101202.53;5595701;31;33256;-66
2023/03/29 00:51:37;;;;;;;;;;;;;;;-0.45;71.68;101197.84;5608783;31;34251;-68
2023/03/29 00:54:45;;;;;;;;;;;;;;;-0.41;74.35;101201.12;5582946;31;32763;-66
2023/03/29 00:57:54;;;;;;;;;;;;;;;-0.25;71.05;101202.87;5609021;31;34096;-66
2023/03/29 01:01:07;;;;;;;;;;;;;;;-0.20;71.85;101197.44;5608057;31;34409;-66
2023/03/29 01:04:29;;;;;;;;;;;;;;;-0.30;71.82;101191.00;5608145;31;35482;-66
2023/03/29 01:08:09;;;;;;;;;;;;;;;-0.35;72.09;101187.78;5608010;31;33812;-66
2023/03/29 01:11:21;;;;;;;;;;;;;;;-0.28;72.22;101187.38;5595461;31;35837;-66
2023/03/29 01:14:38;;;;;;;;;;;;;;;-0.18;72.43;101185.13;5608025;31;33870;-66
2023/03/29 01:17:50;;;;;;;;;;;;;;;-0.25;72.18;101186.37;5608625;31;34883;-66
2023/03/29 01:21:08;;;;;;;;;;;;;;;-0.21;73.37;101182.69;5595331;31;34281;-66
2023/03/29 01:24:18;;;;;;;;;;;;;;;-0.29;73.06;101182.25;5608471;31;33926;-66
2023/03/29 01:27:30;;;;;;;;;;;;;;;-0.40;73.89;101177.59;5608537;31;34208;-66
2023/03/29 01:30:45;;;;;;;;;;;;;;;-0.32;73.54;101180.62;5594896;31;34047;-66
2023/03/29 01:34:04;;;;;;;;;;;;;;;-0.35;74.03;101175.59;5607722;31;34843;-66
2023/03/29 01:37:16;;;;;;;;;;;;;;;-0.26;73.35;101174.28;5607518;31;34137;-66
2023/03/29 01:40:27;;;;;;;;;;;;;;;-0.38;73.38;101174.88;5608363;31;33551;-66
2023/03/29 01:43:41;;;;;;;;;;;;;;;-0.30;73.99;101178.81;5594860;31;34372;-66
2023/03/29 01:46:55;;;;;;;;;;;;;;;-0.39;74.59;101179.28;5607344;31;34331;-65
2023/03/29 01:50:19;;;;;;;;;;;;;;;-0.35;73.67;101175.59;5608041;31;34750;-66
2023/03/29 01:53:30;;;;;;;;;;;;;;;-0.40;74.21;101171.53;5607997;31;33351;-67
2023/03/29 01:56:41;;;;;;;;;;;;;;;-0.41;74.41;101170.69;5595116;31;34809;-65
2023/03/29 01:59:54;;;;;;;;;;;;;;;-0.48;75.31;101162.34;5597065;31;34297;-66
2023/03/29 02:03:05;;;;;;;;;;;;;;;-0.40;74.81;101174.16;5609699;31;35031;-65
2023/03/29 02:06:13;;;;;;;;;;;;;;;-0.38;76.30;101167.06;5610157;31;34776;-65
2023/03/29 02:09:23;;;;;;;;;;;;;;;-0.45;74.88;101176.97;5609455;31;33505;-66
2023/03/29 02:12:36;;;;;;;;;;;;;;;-0.48;76.25;101177.13;5610407;31;34208;-66
2023/03/29 02:15:47;;;;;;;;;;;;;;;-0.49;75.07;101180.69;5596819;31;34579;-66
2023/03/29 02:18:56;;;;;;;;;;;;;;;-0.51;75.56;101182.50;5610557;31;33213;-66
2023/03/29 02:22:09;;;;;;;;;;;;;;;-0.47;73.34;101171.00;5609848;31;34238;-66
2023/03/29 02:25:18;;;;;;;;;;;;;;;-0.40;73.97;101172.37;5609658;31;34369;-66
2023/03/29 02:28:29;;;;;;;;;;;;;;;-0.46;74.08;101170.94;5610441;31;34418;-67
2023/03/29 02:31:48;;;;;;;;;;;;;;;-0.48;74.62;101174.50;5597335;31;34328;-66
2023/03/29 02:35:02;;;;;;;;;;;;;;;-0.52;75.29;101178.19;5610184;31;34608;-66
2023/03/29 02:38:11;;;;;;;;;;;;;;;-0.55;75.61;101184.44;5609564;31;34303;-66
2023/03/29 02:41:22;;;;;;;;;;;;;;;-0.55;76.05;101181.81;5610102;31;34299;-66
2023/03/29 02:44:35;;;;;;;;;;;;;;;-0.63;78.65;101177.94;5596690;31;32917;-66
2023/03/29 02:47:47;;;;;;;;;;;;;;;-0.59;77.12;101188.12;5609455;31;34885;-65
2023/03/29 02:50:55;;;;;;;;;;;;;;;-0.58;77.80;101186.34;5610085;31;34102;-66
2023/03/29 02:54:08;;;;;;;;;;;;;;;-0.73;78.92;101189.72;5610114;31;34265;-66
2023/03/29 02:57:25;;;;;;;;;;;;;;;-0.72;78.84;101197.44;5609310;31;34385;-65
2023/03/29 03:00:35;;;;;;;;;;;;;;;-0.76;79.99;101190.69;5609203;31;34279;-65
2023/03/29 03:03:44;;;;;;;;;;;;;;;-0.71;80.27;101199.13;5610048;31;34315;-66
2023/03/29 03:06:55;;;;;;;;;;;;;;;-0.74;79.84;101201.06;5609074;31;34445;-65
2023/03/29 03:10:05;;;;;;;;;;;;;;;-0.88;81.36;101199.13;5596153;31;34162;-66
2023/03/29 03:13:17;;;;;;;;;;;;;;;-0.88;83.00;101196.53;5608212;31;32995;-65
2023/03/29 03:16:24;;;;;;;;;;;;;;;-1.01;85.46;101200.63;5609074;31;32905;-66
2023/03/29 03:19:35;;;;;;;;;;;;;;;-1.06;84.38;101197.41;5609871;31;34820;-66
2023/03/29 03:22:48;;;;;;;;;;;;;;;-1.00;85.09;101202.31;5609086;31;34831;-65
2023/03/29 03:25:56;;;;;;;;;;;;;;;-0.94;84.71;101200.28;5608938;31;33704;-66
2023/03/29 03:29:08;;;;;;;;;;;;;;;-1.01;85.18;101200.63;5609754;31;34216;-66
2023/03/29 03:32:21;;;;;;;;;;;;;;;-1.10;85.08;101201.94;5609669;31;34223;-65
2023/03/29 03:35:33;;;;;;;;;;;;;;;-0.94;84.62;101204.62;5609613;31;34884;-65
2023/03/29 03:38:46;;;;;;;;;;;;;;;-1.12;86.61;101208.12;5608837;31;35064;-66
2023/03/29 03:41:53;;;;;;;;;;;;;;;-1.14;87.96;101209.97;5608813;31;33991;-66
2023/03/29 03:45:09;;;;;;;;;;;;;;;-1.26;91.84;101214.00;5596312;31;34359;-66
2023/03/29 03:48:20;;;;;;;;;;;;;;;-1.19;89.80;101214.53;5595866;31;33428;-65
2023/03/29 03:51:44;;;;;;;;;;;;;;;-1.37;91.23;101227.50;5601241;31;34178;-66
2023/03/29 03:54:50;;;;;;;;;;;;;;;-1.25;91.58;101207.84;5595669;31;35311;-66
2023/03/29 03:58:03;;;;;;;;;;;;;;;-1.24;94.52;101214.75;5608446;31;32708;-66
2023/03/29 04:01:15;;;;;;;;;;;;;;;-1.28;92.39;101205.41;5595993;31;34929;-65
2023/03/29 04:04:26;;;;;;;;;;;;;;;-1.38;92.83;101205.00;5608950;31;34097;-65
2023/03/29 04:07:35;;;;;;;;;;;;;;;-1.37;93.79;101205.84;5543291;31;2079302;-66
2023/03/29 04:10:51;;;;;;;;;;;;;;;-1.46;94.58;101220.13;5596105;31;32983;-65
2023/03/29 04:13:59;;;;;;;;;;;;;;;-1.41;94.21;101214.72;5596197;31;34599;-65
2023/03/29 04:17:09;;;;;;;;;;;;;;;-1.36;94.48;101210.16;5596132;31;34118;-66
2023/03/29 04:20:19;;;;;;;;;;;;;;;-1.35;94.22;101207.44;5607354;31;34066;-65
2023/03/29 04:23:26;;;;;;;;;;;;;;;-1.40;94.42;101217.22;5609391;31;34190;-65
2023/03/29 04:26:35;;;;;;;;;;;;;;;-1.68;96.92;101211.62;5608685;31;34781;-66
2023/03/29 04:29:45;;;;;;;;;;;;;;;-1.89;98.73;101216.00;5608630;31;34164;-65
2023/03/29 04:32:50;;;;;;;;;;;;;;;-1.95;100.00;101213.72;5595550;31;34286;-66
2023/03/29 04:36:12;;;;;;;;;;;;;;;-1.95;100.00;101205.06;5608950;31;34658;-65
2023/03/29 04:39:20;;;;;;;;;;;;;;;-1.95;100.00;101205.91;5609287;31;34820;-65
2023/03/29 04:42:32;;;;;;;;;;;;;;;-1.96;100.00;101208.56;5609011;31;34996;-65
2023/03/29 04:45:40;;;;;;;;;;;;;;;-1.93;100.00;101211.03;5595432;31;34354;-66
2023/03/29 04:48:48;;;;;;;;;;;;;;;-1.84;100.00;101210.63;5595776;31;34282;-66
2023/03/29 04:52:05;;;;;;;;;;;;;;;-1.61;100.00;101206.97;5608162;31;34166;-65
2023/03/29 04:55:13;;;;;;;;;;;;;;;-1.38;98.94;101214.56;5595571;31;32749;-65
2023/03/29 04:58:22;;;;;;;;;;;;;;;-1.17;97.10;101212.72;5607714;31;34706;-65
2023/03/29 05:01:40;;;;;;;;;;;;;;;-0.92;95.82;101221.88;5608421;31;34305;-65
2023/03/29 05:04:49;;;;;;;;;;;;;;;-0.65;93.09;101218.84;5595403;31;34438;-66
2023/03/29 05:07:57;;;;;;;;;;;;;;;-0.39;95.13;101222.75;5607962;31;34211;-66
2023/03/29 05:11:09;;;;;;;;;;;;;;;-0.20;94.34;101221.75;5595305;31;32687;-66
2023/03/29 05:14:18;;;;;;;;;;;;;;;-0.08;93.27;101231.53;5607679;31;34057;-66
2023/03/29 05:17:30;;;;;;;;;;;;;;;0.03;91.33;101228.38;5608516;31;34177;-66
2023/03/29 05:20:39;;;;;;;;;;;;;;;0.10;91.70;101221.88;5608342;31;34786;-65
2023/03/29 05:23:46;;;;;;;;;;;;;;;0.21;88.75;101218.72;5607415;31;34201;-65
2023/03/29 05:26:55;;;;;;;;;;;;;;;0.31;88.24;101223.37;5608224;31;34226;-67
2023/03/29 05:30:04;;;;;;;;;;;;;;;0.46;72.80;101215.63;5608200;31;33930;-65
2023/03/29 05:33:11;;;;;;;;;;;;;;;0.62;72.28;101216.50;5609907;31;33934;-66
2023/03/29 05:36:17;;;;;;;;;;;;;;;0.93;68.12;101211.25;5596900;31;33316;-67
2023/03/29 05:39:25;;;;;;;;;;;;;;;1.15;66.05;101224.81;5609605;31;34251;-66
2023/03/29 05:42:30;;;;;;;;;;;;;;;1.12;64.66;101221.50;5609689;31;35348;-67
2023/03/29 05:45:35;;;;;;;;;;;;;;;1.30;66.02;101223.09;5609478;31;33991;-66
2023/03/29 05:48:40;;;;;;;;;;;;;;;1.41;64.76;101218.06;5596626;31;33956;-65
2023/03/29 05:51:50;;;;;;;;;;;;;;;1.35;62.83;101225.44;5609559;31;34428;-67
2023/03/29 05:54:56;;;;;;;;;;;;;;;1.52;63.93;101233.97;5610408;31;34297;-65
2023/03/29 05:58:02;;;;;;;;;;;;;;;1.77;63.68;101232.53;5609563;31;35067;-65
2023/03/29 06:01:11;;;;;;;;;;;;;;;1.70;62.28;101242.50;5609613;31;34297;-65
2023/03/29 06:04:19;;;;;;;;;;;;;;;1.85;60.96;101235.53;5609688;31;33661;-66
2023/03/29 06:07:25;;;;;;;;;;;;;;;1.82;62.10;101240.94;5609068;31;34384;-66
2023/03/29 06:10:36;;;;;;;;;;;;;;;1.91;61.23;101237.78;5608987;31;34328;-65
2023/03/29 06:13:42;;;;;;;;;;;;;;;1.93;60.99;101236.78;5610504;31;34891;-66
2023/03/29 06:16:48;;;;;;;;;;;;;;;2.09;61.25;101244.53;5609312;31;34331;-66
2023/03/29 06:19:54;;;;;;;;;;;;;;;2.25;58.63;101242.66;5596411;31;34253;-65
2023/03/29 06:23:00;;;;;;;;;;;;;;;2.19;59.67;101249.09;5596476;31;32814;-65
2023/03/29 06:26:07;;;;;;;;;;;;;;;2.39;59.47;101247.91;5609203;31;34096;-66
2023/03/29 06:29:14;;;;;;;;;;;;;;;2.62;57.42;101249.06;5609458;31;34300;-65
2023/03/29 06:32:23;;;;;;;;;;;;;;;2.35;59.10;101256.87;5609175;31;32497;-65
2023/03/29 06:35:32;;;;;;;;;;;;;;;2.44;58.91;101247.59;5597010;31;33133;-65
2023/03/29 06:38:37;;;;;;;;;;;;;;;2.54;57.75;101254.81;5609073;31;34260;-67
2023/03/29 06:41:43;;;;;;;;;;;;;;;2.57;58.22;101265.09;5610045;31;34932;-67
2023/03/29 06:44:51;;;;;;;;;;;;;;;3.04;56.52;101261.28;5608699;31;34337;-66
2023/03/29 06:47:55;;;;;;;;;;;;;;;3.28;53.95;101264.94;5609038;31;34503;-66
2023/03/29 06:51:02;;;;;;;;;;;;;;;3.55;53.25;101262.28;5604544;31;34501;-68
2023/03/29 06:54:11;;;;;;;;;;;;;;;3.50;53.61;101272.22;5595280;31;33314;-66
2023/03/29 06:57:18;;;;;;;;;;;;;;;3.55;52.46;101266.66;5596287;31;34164;-66
2023/03/29 07:00:27;;;;;;;;;;;;;;;3.56;52.46;101268.34;5609581;31;34244;-65
2023/03/29 07:03:34;;;;;;;;;;;;;;;3.72;52.19;101263.78;5609532;31;34244;-66
2023/03/29 07:06:47;;;;;;;;;;;;;;;3.99;53.68;101268.94;5609897;31;34208;-67
2023/03/29 07:09:54;;;;;;;;;;;;;;;4.14;52.04;101270.53;5610307;31;34944;-67
2023/03/29 07:13:01;;;;;;;;;;;;;;;4.23;49.95;101277.78;5609670;31;34281;-67
2023/03/29 07:16:13;;;;;;;;;;;;;;;4.23;50.45;101278.63;5609097;31;34736;-67
2023/03/29 07:19:21;;;;;;;;;;;;;;;4.01;50.67;101286.28;5609553;31;34016;-67
2023/03/29 07:22:33;;;;;;;;;;;;;;;4.00;51.39;101291.63;5609080;31;34286;-67
2023/03/29 07:25:39;;;;;;;;;;;;;;;4.10;51.57;101284.81;5608944;31;34198;-66
2023/03/29 07:28:44;;;;;;;;;;;;;;;4.30;51.08;101285.16;5609945;31;34393;-67
2023/03/29 07:31:49;;;;;;;;;;;;;;;3.98;52.67;101296.12;5595870;31;34406;-66
2023/03/29 07:34:56;;;;;;;;;;;;;;;4.22;51.48;101292.69;5609250;31;34389;-67
2023/03/29 07:38:02;;;;;;;;;;;;;;;4.44;50.43;101299.97;5608525;31;32606;-66
2023/03/29 07:41:07;;;;;;;;;;;;;;;4.66;49.33;101299.28;5609523;31;34325;-67
2023/03/29 07:44:17;;;;;;;;;;;;;;;5.46;46.63;101300.53;5609389;31;34886;-67
2023/03/29 07:47:22;;;;;;;;;;;;;;;5.36;47.31;101299.53;5609510;31;35015;-67
2023/03/29 07:50:26;;;;;;;;;;;;;;;5.95;45.34;101303.88;5608854;31;34328;-67
2023/03/29 07:53:36;;;;;;;;;;;;;;;6.59;43.31;101300.69;5608657;31;33613;-67
2023/03/29 07:56:46;;;;;;;;;;;;;;;6.16;43.65;101298.75;5584036;31;34857;-67
2023/03/29 07:59:50;;;;;;;;;;;;;;;6.58;41.21;101306.94;5608664;31;34309;-67
2023/03/29 08:02:56;;;;;;;;;;;;;;;6.46;42.45;101304.31;5609580;31;34917;-66
2023/03/29 08:06:02;;;;;;;;;;;;;;;6.40;41.86;101306.56;5608869;31;33824;-67
2023/03/29 08:09:09;;;;;;;;;;;;;;;6.17;40.81;101305.69;5609630;31;34333;-66
2023/03/29 08:12:16;;;;;;;;;;;;;;;6.51;40.65;101303.94;5608131;31;34585;-66
2023/03/29 08:15:20;;;;;;;;;;;;;;;6.74;40.87;101297.69;5595624;31;34450;-66
2023/03/29 08:18:25;;;;;;;;;;;;;;;6.51;41.58;101301.31;5595379;31;33493;-67
2023/03/29 08:21:31;;;;;;;;;;;;;;;6.32;41.06;101290.50;5609104;31;35168;-66
2023/03/29 08:24:40;;;;;;;;;;;;;;;6.55;40.40;101295.66;5609170;31;33855;-66
2023/03/29 08:27:46;;;;;;;;;;;;;;;6.90;38.74;101285.00;5595464;31;34232;-66
2023/03/29 08:30:54;;;;;;;;;;;;;;;7.13;38.63;101288.41;5608621;31;34268;-66
2023/03/29 08:34:02;;;;;;;;;;;;;;;7.62;33.93;101290.53;5595622;31;32876;-67
2023/03/29 08:37:09;;;;;;;;;;;;;;;7.94;34.22;101287.03;5609068;31;33796;-67
2023/03/29 08:40:18;;;;;;;;;;;;;;;8.26;33.27;101282.50;5608618;31;34027;-67
2023/03/29 08:43:38;;;;;;;;;;;;;;;9.03;34.02;101285.47;5608680;31;34767;-67
2023/03/29 08:46:54;;;;;;;;;;;;;;;10.78;30.85;101286.00;5608415;31;33487;-67
2023/03/29 08:50:00;;;;;;;;;;;;;;;12.08;31.03;101291.66;5595099;31;34596;-67
2023/03/29 08:53:16;;;;;;;;;;;;;;;12.11;31.18;101287.84;5608833;31;34443;-68
2023/03/29 08:56:27;;;;;;;;;;;;;;;13.71;28.88;101291.31;5608959;31;35047;-67
2023/03/29 08:59:38;;;;;;;;;;;;;;;15.57;26.69;101288.13;5607876;31;34635;-68
2023/03/29 09:02:44;;;;;;;;;;;;;;;14.82;26.55;101278.13;5608748;31;34210;-67
2023/03/29 09:06:02;;;;;;;;;;;;;;;9.93;32.47;101267.53;5607791;31;34467;-68
2023/03/29 09:09:17;;;;;;;;;;;;;;;9.51;34.41;101269.66;5608044;31;34700;-67
2023/03/29 09:12:40;;;;;;;;;;;;;;;8.97;34.56;101262.19;5608519;31;33802;-67
2023/03/29 09:15:50;;;;;;;;;;;;;;;7.66;36.49;101267.34;5608261;31;34154;-67
2023/03/29 09:19:09;;;;;;;;;;;;;;;7.03;37.63;101255.81;5594594;31;32873;-67
2023/03/29 09:22:22;;;;;;;;;;;;;;;6.88;39.04;101238.56;5582059;31;32313;-66
2023/03/29 09:25:27;;;;;;;;;;;;;;;6.61;38.79;101246.06;5608418;31;34805;-68
2023/03/29 09:28:49;;;;;;;;;;;;;;;6.24;42.53;101243.69;5595052;31;32902;-69
2023/03/29 09:31:55;;;;;;;;;;;;;;;6.72;40.56;101246.91;5607268;31;33772;-66
2023/03/29 09:35:02;;;;;;;;;;;;;;;6.64;41.04;101243.16;5608230;31;34831;-66
2023/03/29 09:38:11;;;;;;;;;;;;;;;6.42;41.09;101230.84;5607295;31;34322;-66
2023/03/29 09:41:19;;;;;;;;;;;;;;;6.77;39.90;101236.81;5607438;31;34419;-66
2023/03/29 09:44:30;;;;;;;;;;;;;;;6.65;40.17;101239.56;5606791;31;32842;-67
2023/03/29 09:47:39;;;;;;;;;;;;;;;6.78;39.10;101237.63;5607506;31;34850;-67
2023/03/29 09:50:47;;;;;;;;;;;;;;;6.64;38.62;101224.72;5607187;31;33878;-67
2023/03/29 09:53:55;;;;;;;;;;;;;;;6.95;38.43;101224.78;5607209;31;34307;-66
2023/03/29 09:57:00;;;;;;;;;;;;;;;7.05;38.03;101216.97;5606951;31;34814;-68
2023/03/29 10:00:05;;;;;;;;;;;;;;;6.86;39.35;101215.00;5608051;31;34257;-67
2023/03/29 10:03:20;;;;;;;;;;;;;;;6.89;39.61;101211.25;5607973;31;34101;-68
2023/03/29 10:06:28;;;;;;;;;;;;;;;7.19;38.94;101213.19;5607210;31;33914;-67
2023/03/29 10:09:34;;;;;;;;;;;;;;;7.40;37.42;101212.28;5580364;31;34447;-67
2023/03/29 10:12:49;;;;;;;;;;;;;;;7.65;38.94;101197.84;5593762;31;35267;-66
2023/03/29 10:16:02;;;;;;;;;;;;;;;7.99;36.49;101201.09;5608000;31;34452;-66
2023/03/29 10:19:18;;;;;;;;;;;;;;;8.26;38.34;101185.53;5607001;31;32677;-66
2023/03/29 10:22:26;;;;;;;;;;;;;;;7.92;37.01;101186.75;5609317;31;34196;-67
2023/03/29 10:25:32;;;;;;;;;;;;;;;7.92;38.06;101175.34;5610384;31;34193;-67
2023/03/29 10:28:37;;;;;;;;;;;;;;;7.90;39.04;101178.12;5608841;31;34018;-67
2023/03/29 10:31:42;;;;;;;;;;;;;;;7.73;38.35;101176.09;5608938;31;33822;-67
2023/03/29 10:34:48;;;;;;;;;;;;;;;7.90;39.37;101178.12;5610093;31;34221;-66
2023/03/29 10:37:56;;;;;;;;;;;;;;;7.44;39.13;101173.25;5596116;31;33977;-67
2023/03/29 10:41:09;;;;;;;;;;;;;;;7.42;38.90;101170.75;5608977;31;34463;-67
2023/03/29 10:44:27;;;;;;;;;;;;;;;7.58;38.11;101164.19;5609398;31;34006;-67
2023/03/29 10:47:36;;;;;;;;;;;;;;;7.75;39.49;101153.00;5610175;31;34633;-67
2023/03/29 10:50:47;;;;;;;;;;;;;;;7.84;38.04;101154.88;5609113;31;35516;-68
2023/03/29 10:53:50;;;;;;;;;;;;;;;7.33;40.12;101150.41;5609323;31;35699;-67
2023/03/29 10:56:56;;;;;;;;;;;;;;;7.91;39.73;101155.19;5609354;31;34237;-67
2023/03/29 11:00:04;;;;;;;;;;;;;;;8.41;38.31;101150.81;5608992;31;34395;-67
2023/03/29 11:03:09;;;;;;;;;;;;;;;11.93;34.07;101152.28;5609256;31;34094;-67
2023/03/29 11:06:21;;;;;;;;;;;;;;;14.73;28.10;101149.97;5596606;31;32736;-68
2023/03/29 11:09:38;;;;;;;;;;;;;;;16.58;26.73;101150.22;5610014;31;34877;-67
2023/03/29 11:12:55;;;;;;;;;;;;;;;13.49;28.86;101146.19;5596028;31;33460;-68
2023/03/29 11:16:23;;;;;;;;;;;;;;;17.31;27.28;101142.78;5596438;31;34562;-67
2023/03/29 11:19:40;;;;;;;;;;;;;;;19.02;23.45;101153.69;5610075;31;35197;-68
2023/03/29 11:22:48;;;;;;;;;;;;;;;18.81;22.89;101137.69;5596519;31;33772;-68
2023/03/29 11:25:57;;;;;;;;;;;;;;;19.51;22.08;101148.75;5596354;31;33796;-69
2023/03/29 11:29:08;;;;;;;;;;;;;;;19.37;22.54;101141.69;5609464;31;34668;-67
2023/03/29 11:32:22;;;;;;;;;;;;;;;18.62;23.47;101134.75;5608695;31;34428;-68
2023/03/29 11:35:36;;;;;;;;;;;;;;;21.01;22.05;101129.59;5609089;31;32946;-68
2023/03/29 11:38:53;;;;;;;;;;;;;;;21.23;20.43;101128.25;5595945;31;33127;-68
2023/03/29 11:42:08;;;;;;;;;;;;;;;21.33;20.86;101122.38;5608743;31;33248;-68
2023/03/29 11:45:20;;;;;;;;;;;;;;;19.37;22.33;101116.62;5608293;31;33583;-68
2023/03/29 11:48:28;;;;;;;;;;;;;;;18.80;24.15;101109.16;5608544;31;34981;-69
2023/03/29 11:51:49;;;;;;;;;;;;;;;19.76;21.63;101103.19;5608533;31;34280;-68
2023/03/29 11:55:03;;;;;;;;;;;;;;;21.16;20.17;101103.19;5608307;31;33204;-68
2023/03/29 11:58:41;;;;;;;;;;;;;;;21.90;19.55;101114.97;5608670;31;33805;-69
2023/03/29 12:01:49;;;;;;;;;;;;;;;18.52;22.09;101101.19;5567249;31;34593;-69
2023/03/29 12:04:58;;;;;;;;;;;;;;;18.02;23.38;101097.03;5596045;31;33576;-68
2023/03/29 12:08:02;;;;;;;;;;;;;;;16.04;24.81;101089.00;5595564;31;33487;-68
2023/03/29 12:11:13;;;;;;;;;;;;;;;19.43;22.65;101092.44;5595066;31;33548;-69
2023/03/29 12:14:48;;;;;;;;;;;;;;;20.89;21.20;101090.91;5595659;31;34880;-69
2023/03/29 12:17:56;;;;;;;;;;;;;;;20.81;20.55;101086.62;5579962;31;33016;-69
2023/03/29 12:21:05;;;;;;;;;;;;;;;20.14;20.71;101081.72;5608092;31;34707;-69
2023/03/29 12:24:14;;;;;;;;;;;;;;;19.87;20.74;101075.62;5595559;31;34429;-69
2023/03/29 12:27:38;;;;;;;;;;;;;;;16.47;24.24;101079.22;5595420;31;33021;-68
2023/03/29 12:30:48;;;;;;;;;;;;;;;15.11;25.99;101067.19;5595496;31;34329;-68
2023/03/29 12:34:04;;;;;;;;;;;;;;;16.37;25.19;101058.09;5595255;31;33695;-69
2023/03/29 12:37:22;;;;;;;;;;;;;;;19.06;22.33;101061.63;5594941;31;35345;-69
2023/03/29 12:40:35;;;;;;;;;;;;;;;18.17;22.47;101065.53;5608380;31;34248;-69
2023/03/29 12:43:47;;;;;;;;;;;;;;;17.84;23.94;101051.94;5594902;31;33194;-69
2023/03/29 12:46:57;;;;;;;;;;;;;;;19.04;22.27;101052.09;5608148;31;33811;-69
2023/03/29 12:50:03;;;;;;;;;;;;;;;18.94;23.18;101048.97;5595439;31;35754;-69
2023/03/29 12:53:34;;;;;;;;;;;;;;;18.01;23.36;101050.56;5608945;31;34213;-69
2023/03/29 12:57:16;;;;;;;;;;;;;;;18.02;23.68;101044.19;5607464;31;34669;-69
2023/03/29 13:00:25;;;;;;;;;;;;;;;17.64;23.57;101043.78;5502962;32;33504;-69
2023/03/29 13:03:48;;;;;;;;;;;;;;;17.55;23.92;101039.56;5516790;32;34317;-69
2023/03/29 13:07:02;;;;;;;;;;;;;;;19.47;22.56;101044.44;5528855;32;34291;-69
2023/03/29 13:10:27;;;;;;;;;;;;;;;19.54;22.80;101047.94;5515586;32;33528;-69
2023/03/29 13:13:39;;;;;;;;;;;;;;;18.04;25.50;101031.41;5516222;32;34215;-70
2023/03/29 13:16:47;;;;;;;;;;;;;;;15.61;25.83;101032.66;5515833;32;33285;-69
2023/03/29 13:20:11;;;;;;;;;;;;;;;16.04;26.21;101020.22;5528769;32;34468;-69
2023/03/29 13:23:16;;;;;;;;;;;;;;;17.25;24.72;101027.41;5496829;32;34435;-70
2023/03/29 13:26:33;;;;;;;;;;;;;;;18.17;23.93;101017.19;5527848;32;34147;-69
2023/03/29 13:29:48;;;;;;;;;;;;;;;19.94;22.04;101013.66;5515244;32;34004;-69
2023/03/29 13:33:02;;;;;;;;;;;;;;;20.85;21.52;101010.66;5537482;31;34998;-69
2023/03/29 13:36:14;;;;;;;;;;;;;;;18.62;24.19;101010.28;5608092;31;33801;-69
2023/03/29 13:39:26;;;;;;;;;;;;;;;15.49;29.50;100990.47;5593799;31;33308;-69
2023/03/29 13:42:33;;;;;;;;;;;;;;;13.65;31.04;101004.00;5606962;31;34470;-69
2023/03/29 13:45:39;;;;;;;;;;;;;;;15.15;29.12;101005.19;5594239;31;34197;-69
2023/03/29 13:48:50;;;;;;;;;;;;;;;17.57;26.86;100996.47;5606907;31;34907;-69
2023/03/29 13:52:12;;;;;;;;;;;;;;;18.84;24.86;100990.25;5606734;31;34230;-69
2023/03/29 13:55:24;;;;;;;;;;;;;;;17.53;26.66;100990.63;5609648;31;34378;-68
2023/03/29 13:58:38;;;;;;;;;;;;;;;18.49;25.57;100989.56;5596374;31;33297;-69
2023/03/29 14:01:53;;;;;;;;;;;;;;;20.00;23.45;100977.78;5609832;31;34080;-69
2023/03/29 14:05:02;;;;;;;;;;;;;;;19.79;24.19;100970.84;5609504;31;34446;-69
2023/03/29 14:08:20;;;;;;;;;;;;;;;18.95;24.42;100980.72;5609530;31;34177;-69
2023/03/29 14:11:25;;;;;;;;;;;;;;;17.67;25.45;100980.88;5596058;31;33307;-69
2023/03/29 14:14:31;;;;;;;;;;;;;;;18.91;24.31;100974.94;5609821;31;35152;-68
2023/03/29 14:17:39;;;;;;;;;;;;;;;18.08;25.06;100983.47;5608865;31;34108;-69
2023/03/29 14:20:48;;;;;;;;;;;;;;;16.56;27.29;100972.78;5595495;31;35014;-68
2023/03/29 14:23:57;;;;;;;;;;;;;;;15.65;28.96;100961.72;5595763;31;34503;-68
2023/03/29 14:27:13;;;;;;;;;;;;;;;15.94;29.51;100958.16;5608845;31;34939;-68
2023/03/29 14:30:22;;;;;;;;;;;;;;;16.65;28.78;100958.28;5609075;31;35055;-69
2023/03/29 14:33:28;;;;;;;;;;;;;;;14.77;28.87;100958.97;5595952;31;34177;-68
2023/03/29 14:36:37;;;;;;;;;;;;;;;13.55;31.27;100955.41;5608861;31;34839;-69
2023/03/29 14:39:43;;;;;;;;;;;;;;;12.64;32.82;100957.56;5596034;31;35074;-68
2023/03/29 14:42:50;;;;;;;;;;;;;;;11.76;34.44;100957.28;5608840;31;34262;-68
2023/03/29 14:46:01;;;;;;;;;;;;;;;11.47;35.49;100958.66;5595527;31;33661;-68
2023/03/29 14:49:25;;;;;;;;;;;;;;;11.04;36.48;100960.38;5609036;31;34310;-67
2023/03/29 14:52:33;;;;;;;;;;;;;;;11.03;36.76;100955.25;5608856;31;35062;-68
2023/03/29 14:55:39;;;;;;;;;;;;;;;10.70;38.28;100947.03;5609285;31;34374;-68
2023/03/29 14:58:45;;;;;;;;;;;;;;;10.55;39.51;100943.31;5609982;31;34433;-68
2023/03/29 15:01:51;;;;;;;;;;;;;;;10.87;38.94;100943.53;5609247;31;34649;-68
2023/03/29 15:05:04;;;;;;;;;;;;;;;10.86;38.47;100946.34;5609055;31;34207;-69
2023/03/29 15:08:17;;;;;;;;;;;;;;;10.67;38.23;100944.72;5595915;31;34691;-68
2023/03/29 15:11:26;;;;;;;;;;;;;;;10.53;39.06;100947.09;5608722;31;34450;-68
2023/03/29 15:14:35;;;;;;;;;;;;;;;10.44;40.76;100938.25;5595611;31;33193;-68
2023/03/29 15:17:47;;;;;;;;;;;;;;;10.58;40.45;100950.94;5609571;31;34524;-68
2023/03/29 15:20:57;;;;;;;;;;;;;;;10.52;40.98;100943.59;5608823;31;34454;-68
2023/03/29 15:24:02;;;;;;;;;;;;;;;10.24;41.42;100937.56;5609409;31;34930;-68
2023/03/29 15:27:16;;;;;;;;;;;;;;;10.36;41.34;100933.69;5609694;31;34188;-68
2023/03/29 15:30:30;;;;;;;;;;;;;;;10.31;41.38;100933.31;5609595;31;34374;-68
2023/03/29 15:33:40;;;;;;;;;;;;;;;9.86;42.71;100938.66;5610042;31;34178;-69
2023/03/29 15:36:46;;;;;;;;;;;;;;;10.04;41.63;100941.31;5608625;31;35162;-67
2023/03/29 15:39:55;;;;;;;;;;;;;;;10.23;41.93;100929.75;5609621;31;33961;-67
2023/03/29 15:43:01;;;;;;;;;;;;;;;10.46;40.61;100931.78;5608149;31;33335;-69
2023/03/29 15:46:07;;;;;;;;;;;;;;;10.27;40.61;100920.50;5609906;31;34179;-69
2023/03/29 15:49:13;;;;;;;;;;;;;;;9.97;40.67;100911.91;5608497;31;33763;-68
2023/03/29 15:52:20;;;;;;;;;;;;;;;9.96;41.91;100912.91;5609206;31;34912;-68
2023/03/29 15:55:28;;;;;;;;;;;;;;;9.89;41.72;100914.50;5609623;31;34167;-69
2023/03/29 15:58:35;;;;;;;;;;;;;;;9.68;41.42;100918.41;5609534;31;34564;-69
2023/03/29 16:01:41;;;;;;;;;;;;;;;9.79;41.19;100919.03;5608582;31;34830;-68
2023/03/29 16:04:52;;;;;;;;;;;;;;;9.60;41.33;100909.38;5608832;31;34262;-69
2023/03/29 16:08:03;;;;;;;;;;;;;;;9.38;41.69;100906.31;5609034;31;34807;-68
2023/03/29 16:11:10;;;;;;;;;;;;;;;9.13;43.31;100906.00;5608930;31;34700;-69
2023/03/29 16:14:18;;;;;;;;;;;;;;;9.20;44.31;100900.94;5609529;31;34301;-68
2023/03/29 16:17:26;;;;;;;;;;;;;;;9.13;43.19;100898.06;5607832;31;34074;-68
2023/03/29 16:20:37;;;;;;;;;;;;;;;9.15;45.22;100892.59;5609091;31;34555;-68
2023/03/29 16:23:44;;;;;;;;;;;;;;;9.21;44.73;100889.38;5608577;31;34257;-69